Time;durP1;ratioP1;P1;durP2;ratioP2;P2;SDS_P1;SDS_P2;PMS_P1;PMS_P2;Temp;Humidity;BMP_temperature;BMP_pressure;BME280_temperature;BME280_humidity;BME280_pressure;Samples;Min_cycle;Max_cycle;Signal;HPM_P1;HPM_P2
2022/07/28 00:01:36;;;;;;;;;;;25.90;87.00;;;;;;5076527;28;19916;-69
2022/07/28 00:04:01;;;;;;;;;;;25.90;86.90;;;;;;5076399;28;20009;-68
2022/07/28 00:06:27;;;;;;;;;;;25.90;86.90;;;;;;5058386;28;20275;-69
2022/07/28 00:08:53;;;;;;;;;;;25.90;86.90;;;;;;5075868;28;19912;-68
2022/07/28 00:11:19;;;;;;;;;;;25.90;86.90;;;;;;5057789;28;20007;-68
2022/07/28 00:13:44;;;;;;;;;;;25.90;86.80;;;;;;5076095;28;19944;-67
2022/07/28 00:16:10;;;;;;;;;;;25.80;86.90;;;;;;5075982;28;19965;-68
2022/07/28 00:18:35;;;;;;;;;;;25.90;87.00;;;;;;5058133;28;20046;-68
2022/07/28 00:21:01;;;;;;;;;;;25.90;87.00;;;;;;5058036;28;19924;-68
2022/07/28 00:23:26;;;;;;;;;;;25.80;87.00;;;;;;5075968;28;20310;-68
2022/07/28 00:25:52;;;;;;;;;;;25.90;87.10;;;;;;5058100;28;20011;-68
2022/07/28 00:28:18;;;;;;;;;;;25.80;87.10;;;;;;5057638;28;19915;-68
2022/07/28 00:30:43;;;;;;;;;;;25.90;87.20;;;;;;5075545;28;19916;-68
2022/07/28 00:33:09;;;;;;;;;;;25.80;86.80;;;;;;5075533;28;19923;-68
2022/07/28 00:35:35;;;;;;;;;;;25.90;86.90;;;;;;5075769;28;20240;-69
2022/07/28 00:38:00;;;;;;;;;;;25.80;86.80;;;;;;5057791;28;20011;-68
2022/07/28 00:41:09;;;;;;;;;;;25.80;86.80;;;;;;5075603;28;20011;-69
2022/07/28 00:43:11;;;;;;;;;;;25.80;86.80;;;;;;5075129;28;19969;-68
2022/07/28 00:45:36;;;;;;;;;;;25.80;87.00;;;;;;5075887;28;19909;-68
2022/07/28 00:48:02;;;;;;;;;;;25.80;87.10;;;;;;5075510;28;19908;-68
2022/07/28 00:50:28;;;;;;;;;;;25.80;87.00;;;;;;5075025;28;19967;-68
2022/07/28 00:52:54;;;;;;;;;;;25.80;86.90;;;;;;5057477;28;19909;-68
2022/07/28 00:55:21;;;;;;;;;;;25.80;87.00;;;;;;5057542;28;19909;-68
2022/07/28 00:57:47;;;;;;;;;;;25.80;86.90;;;;;;5074942;28;19962;-68
2022/07/28 01:00:12;;;;;;;;;;;25.80;86.90;;;;;;5075118;28;19920;-68
2022/07/28 01:02:38;;;;;;;;;;;25.80;87.00;;;;;;5075239;28;19954;-68
2022/07/28 01:05:04;;;;;;;;;;;25.80;86.90;;;;;;5075154;28;19909;-69
2022/07/28 01:07:31;;;;;;;;;;;25.80;86.90;;;;;;5074810;28;19932;-68
2022/07/28 01:10:14;;;;;;;;;;;25.80;86.90;;;;;;5075077;28;19909;-68
2022/07/28 01:12:57;;;;;;;;;;;25.80;86.90;;;;;;5074790;28;19998;-68
2022/07/28 01:15:29;;;;;;;;;;;25.80;86.90;;;;;;5057027;28;19908;-68
2022/07/28 01:17:59;;;;;;;;;;;25.80;86.90;;;;;;5056972;28;20347;-68
2022/07/28 01:20:29;;;;;;;;;;;25.80;87.10;;;;;;5074713;28;19917;-68
2022/07/28 01:23:13;;;;;;;;;;;25.80;87.00;;;;;;5074572;28;19916;-69
2022/07/28 01:25:47;;;;;;;;;;;25.80;87.00;;;;;;5074838;28;19909;-68
2022/07/28 01:28:12;;;;;;;;;;;25.80;87.10;;;;;;5056983;28;20213;-68
2022/07/28 01:30:40;;;;;;;;;;;25.70;86.90;;;;;;5074671;28;19915;-68
2022/07/28 01:33:16;;;;;;;;;;;25.80;87.00;;;;;;5074338;28;19916;-68
2022/07/28 01:35:53;;;;;;;;;;;25.70;86.90;;;;;;5074527;28;20002;-69
2022/07/28 01:38:21;;;;;;;;;;;25.80;87.00;;;;;;5074627;28;19982;-68
2022/07/28 01:40:48;;;;;;;;;;;25.70;86.90;;;;;;5074482;28;19923;-67
2022/07/28 01:43:17;;;;;;;;;;;25.80;87.10;;;;;;5074513;28;19908;-69
2022/07/28 01:45:43;;;;;;;;;;;25.70;87.00;;;;;;5056479;28;20011;-68
2022/07/28 01:48:10;;;;;;;;;;;25.70;87.00;;;;;;5074322;28;19913;-68
2022/07/28 01:50:37;;;;;;;;;;;25.70;87.10;;;;;;5074102;28;20240;-68
2022/07/28 01:53:03;;;;;;;;;;;25.70;87.00;;;;;;5074116;28;19934;-68
2022/07/28 01:55:29;;;;;;;;;;;25.70;87.10;;;;;;5056460;28;19938;-68
2022/07/28 01:57:55;;;;;;;;;;;25.70;87.00;;;;;;5074063;28;19908;-69
2022/07/28 02:00:23;;;;;;;;;;;25.70;87.20;;;;;;5055979;28;20366;-68
2022/07/28 02:02:49;;;;;;;;;;;25.70;87.00;;;;;;5073947;28;19909;-68
2022/07/28 02:05:17;;;;;;;;;;;25.70;87.20;;;;;;5073494;28;20288;-68
2022/07/28 02:07:43;;;;;;;;;;;25.70;87.10;;;;;;5056247;28;20252;-68
2022/07/28 02:10:10;;;;;;;;;;;25.80;87.20;;;;;;5056207;28;20363;-68
2022/07/28 02:12:37;;;;;;;;;;;25.80;87.20;;;;;;5073880;28;19983;-68
2022/07/28 02:15:05;;;;;;;;;;;25.70;87.10;;;;;;5056181;28;19908;-68
2022/07/28 02:17:32;;;;;;;;;;;25.70;87.20;;;;;;5073756;28;19913;-68
2022/07/28 02:19:58;;;;;;;;;;;25.80;87.10;;;;;;5073752;28;19935;-68
2022/07/28 02:22:25;;;;;;;;;;;25.80;87.30;;;;;;5073756;28;20429;-68
2022/07/28 02:24:52;;;;;;;;;;;25.70;87.00;;;;;;5073708;28;19974;-68
2022/07/28 02:27:17;;;;;;;;;;;25.70;87.20;;;;;;5074016;28;19970;-67
2022/07/28 02:29:43;;;;;;;;;;;25.70;87.20;;;;;;5074133;28;19909;-68
2022/07/28 02:32:12;;;;;;;;;;;25.80;87.20;;;;;;5073749;28;19915;-69
2022/07/28 02:34:38;;;;;;;;;;;25.70;87.20;;;;;;5078169;28;19915;-68
2022/07/28 02:37:04;;;;;;;;;;;25.70;87.20;;;;;;5077998;28;20278;-68
2022/07/28 02:39:33;;;;;;;;;;;25.70;87.20;;;;;;5060025;28;19951;-68
2022/07/28 02:42:05;;;;;;;;;;;25.70;87.20;;;;;;5077665;28;19919;-68
2022/07/28 02:44:35;;;;;;;;;;;25.70;87.10;;;;;;5077911;28;20266;-68
2022/07/28 02:47:01;;;;;;;;;;;25.70;87.30;;;;;;5077797;28;19912;-68
2022/07/28 02:49:29;;;;;;;;;;;25.70;87.20;;;;;;5077491;28;19915;-68
2022/07/28 02:51:55;;;;;;;;;;;25.70;87.30;;;;;;5077732;28;19952;-68
2022/07/28 02:54:22;;;;;;;;;;;25.70;87.10;;;;;;5059468;28;19964;-68
2022/07/28 02:56:49;;;;;;;;;;;25.70;87.30;;;;;;5059796;28;19908;-68
2022/07/28 02:59:15;;;;;;;;;;;25.70;87.10;;;;;;5077408;28;19921;-68
2022/07/28 03:01:42;;;;;;;;;;;25.70;87.30;;;;;;5077326;28;20439;-68
2022/07/28 03:04:08;;;;;;;;;;;25.70;87.40;;;;;;5077432;28;19909;-68
2022/07/28 03:06:34;;;;;;;;;;;25.70;87.40;;;;;;5077426;28;19930;-68
2022/07/28 03:09:00;;;;;;;;;;;25.70;87.30;;;;;;5059500;28;19908;-68
2022/07/28 03:11:26;;;;;;;;;;;25.70;87.30;;;;;;5076975;28;20355;-68
2022/07/28 03:13:52;;;;;;;;;;;25.70;87.20;;;;;;5059171;28;20263;-68
2022/07/28 03:16:17;;;;;;;;;;;25.70;87.20;;;;;;5077139;28;19954;-67
2022/07/28 03:18:43;;;;;;;;;;;25.70;87.30;;;;;;5059450;28;20019;-68
2022/07/28 03:21:08;;;;;;;;;;;25.70;87.20;;;;;;5077110;28;19912;-68
2022/07/28 03:23:40;;;;;;;;;;;25.70;87.20;;;;;;5076748;28;19920;-68
2022/07/28 03:26:08;;;;;;;;;;;25.70;87.30;;;;;;5076983;28;19970;-68
2022/07/28 03:28:34;;;;;;;;;;;25.70;87.30;;;;;;5059086;28;20305;-68
2022/07/28 03:31:02;;;;;;;;;;;25.70;87.20;;;;;;5059038;28;20347;-68
2022/07/28 03:33:28;;;;;;;;;;;25.70;87.20;;;;;;5076898;28;19908;-68
2022/07/28 03:35:55;;;;;;;;;;;25.70;87.20;;;;;;5077151;28;19914;-68
2022/07/28 03:38:36;;;;;;;;;;;25.70;87.10;;;;;;5076521;28;19909;-67
2022/07/28 03:41:02;;;;;;;;;;;25.70;87.20;;;;;;5076629;28;19931;-68
2022/07/28 03:43:28;;;;;;;;;;;25.70;87.10;;;;;;5058517;28;20027;-68
2022/07/28 03:45:54;;;;;;;;;;;25.60;87.00;;;;;;5057470;28;20363;-67
2022/07/28 03:48:23;;;;;;;;;;;25.60;87.20;;;;;;5076454;28;19916;-67
2022/07/28 03:50:48;;;;;;;;;;;25.60;87.10;;;;;;5076556;28;20007;-67
2022/07/28 03:53:19;;;;;;;;;;;25.60;87.20;;;;;;5076124;28;19992;-68
2022/07/28 03:55:49;;;;;;;;;;;25.60;87.00;;;;;;5076241;28;19984;-68
2022/07/28 03:58:21;;;;;;;;;;;25.60;87.20;;;;;;5076495;28;19908;-68
2022/07/28 04:00:48;;;;;;;;;;;25.70;87.10;;;;;;5054675;28;19925;-68
2022/07/28 04:03:13;;;;;;;;;;;25.60;87.10;;;;;;5056254;28;19909;-68
2022/07/28 04:05:39;;;;;;;;;;;25.70;87.10;;;;;;5055964;28;19909;-68
2022/07/28 04:08:05;;;;;;;;;;;25.60;87.10;;;;;;5056227;28;19909;-68
2022/07/28 04:10:30;;;;;;;;;;;25.60;87.10;;;;;;5054799;28;20378;-68
2022/07/28 04:12:56;;;;;;;;;;;25.60;87.20;;;;;;5055592;28;19909;-68
2022/07/28 04:15:23;;;;;;;;;;;25.60;87.10;;;;;;5055739;28;20355;-67
2022/07/28 04:17:48;;;;;;;;;;;25.60;87.10;;;;;;5056084;28;19956;-67
2022/07/28 04:20:18;;;;;;;;;;;25.60;87.10;;;;;;5055950;28;19917;-68
2022/07/28 04:22:44;;;;;;;;;;;25.60;87.20;;;;;;5055625;28;19909;-68
2022/07/28 04:25:11;;;;;;;;;;;25.60;87.10;;;;;;5055457;28;19959;-68
2022/07/28 04:27:37;;;;;;;;;;;25.60;87.10;;;;;;5054467;28;20363;-68
2022/07/28 04:30:04;;;;;;;;;;;25.60;87.00;;;;;;5055673;28;20037;-67
2022/07/28 04:32:29;;;;;;;;;;;25.60;87.10;;;;;;5055644;28;19956;-67
2022/07/28 04:34:55;;;;;;;;;;;25.60;87.20;;;;;;5055721;28;19955;-67
2022/07/28 04:37:20;;;;;;;;;;;25.60;87.20;;;;;;5055453;28;19909;-66
2022/07/28 04:39:46;;;;;;;;;;;25.60;87.20;;;;;;5053823;28;20276;-68
2022/07/28 04:42:12;;;;;;;;;;;25.60;87.10;;;;;;5055209;28;20043;-68
2022/07/28 04:44:41;;;;;;;;;;;25.60;87.10;;;;;;5055085;28;19954;-68
2022/07/28 04:47:07;;;;;;;;;;;25.60;87.10;;;;;;5055370;28;20027;-68
2022/07/28 04:49:33;;;;;;;;;;;25.60;87.30;;;;;;5055037;28;20360;-69
2022/07/28 04:51:58;;;;;;;;;;;25.60;87.20;;;;;;5054083;28;19927;-68
2022/07/28 04:54:25;;;;;;;;;;;25.60;87.10;;;;;;5054978;28;20406;-68
2022/07/28 04:56:51;;;;;;;;;;;25.60;87.10;;;;;;5054624;28;20378;-68
2022/07/28 04:59:17;;;;;;;;;;;25.60;87.10;;;;;;5059407;28;19921;-68
2022/07/28 05:01:43;;;;;;;;;;;25.60;87.20;;;;;;5074815;28;19923;-68
2022/07/28 05:04:09;;;;;;;;;;;25.60;87.20;;;;;;5074625;28;20172;-69
2022/07/28 05:06:34;;;;;;;;;;;25.60;87.10;;;;;;5074573;28;19954;-68
2022/07/28 05:09:00;;;;;;;;;;;25.60;87.20;;;;;;5074599;28;19915;-68
2022/07/28 05:11:25;;;;;;;;;;;25.70;87.20;;;;;;5090506;28;19909;-69
2022/07/28 05:13:51;;;;;;;;;;;25.70;87.20;;;;;;5074404;28;20232;-68
2022/07/28 05:16:16;;;;;;;;;;;25.60;87.20;;;;;;5074774;28;20318;-68
2022/07/28 05:18:42;;;;;;;;;;;25.70;87.20;;;;;;5056687;28;19912;-68
2022/07/28 05:21:07;;;;;;;;;;;25.70;87.70;;;;;;5073939;28;19913;-69
2022/07/28 05:23:32;;;;;;;;;;;25.70;87.20;;;;;;5056592;28;20359;-69
2022/07/28 05:25:58;;;;;;;;;;;25.60;86.90;;;;;;5074227;28;19931;-68
2022/07/28 05:28:23;;;;;;;;;;;25.70;87.10;;;;;;5074323;28;19931;-69
2022/07/28 05:30:49;;;;;;;;;;;25.70;87.20;;;;;;5074304;28;20262;-68
2022/07/28 05:33:15;;;;;;;;;;;25.70;87.00;;;;;;5073853;28;20261;-69
2022/07/28 05:35:40;;;;;;;;;;;25.70;87.00;;;;;;5073780;28;19995;-69
2022/07/28 05:38:06;;;;;;;;;;;25.70;86.90;;;;;;5074195;28;19908;-69
2022/07/28 05:40:32;;;;;;;;;;;25.70;87.00;;;;;;5073548;28;19963;-69
2022/07/28 05:42:57;;;;;;;;;;;25.70;87.50;;;;;;5073639;28;19958;-69
2022/07/28 05:45:23;;;;;;;;;;;25.70;87.00;;;;;;5056206;28;19915;-69
2022/07/28 05:47:52;;;;;;;;;;;25.70;87.00;;;;;;5056013;28;19916;-69
2022/07/28 05:50:18;;;;;;;;;;;25.70;87.00;;;;;;5055717;28;19995;-69
2022/07/28 05:52:45;;;;;;;;;;;25.70;87.00;;;;;;5073759;28;19908;-69
2022/07/28 05:55:10;;;;;;;;;;;25.70;86.80;;;;;;5073691;28;19908;-68
2022/07/28 05:57:36;;;;;;;;;;;25.70;86.90;;;;;;5073882;28;19919;-68
2022/07/28 06:00:04;;;;;;;;;;;25.70;86.90;;;;;;5073392;28;19928;-68
2022/07/28 06:02:30;;;;;;;;;;;25.70;87.00;;;;;;5055771;28;20274;-69
2022/07/28 06:04:55;;;;;;;;;;;25.70;87.00;;;;;;5055294;28;19912;-68
2022/07/28 06:07:21;;;;;;;;;;;25.70;87.00;;;;;;5072911;28;19916;-67
2022/07/28 06:09:46;;;;;;;;;;;25.70;87.00;;;;;;5072957;28;19908;-68
2022/07/28 06:12:12;;;;;;;;;;;25.70;86.90;;;;;;5073087;28;20014;-69
2022/07/28 06:14:37;;;;;;;;;;;25.70;86.90;;;;;;5072962;28;19962;-69
2022/07/28 06:17:03;;;;;;;;;;;25.70;87.00;;;;;;5055433;28;20267;-69
2022/07/28 06:19:29;;;;;;;;;;;25.70;87.00;;;;;;5072616;28;19917;-68
2022/07/28 06:21:54;;;;;;;;;;;25.70;87.00;;;;;;5073003;28;20346;-68
2022/07/28 06:24:20;;;;;;;;;;;25.70;87.00;;;;;;5055067;28;19923;-69
2022/07/28 06:26:45;;;;;;;;;;;25.70;87.10;;;;;;5055022;28;19908;-69
2022/07/28 06:29:11;;;;;;;;;;;25.70;87.00;;;;;;5072998;28;19983;-69
2022/07/28 06:31:37;;;;;;;;;;;25.70;87.00;;;;;;5055431;28;19915;-69
2022/07/28 06:34:03;;;;;;;;;;;25.70;87.00;;;;;;5055317;28;19954;-68
2022/07/28 06:36:28;;;;;;;;;;;25.70;87.00;;;;;;5055298;28;20298;-69
2022/07/28 06:38:54;;;;;;;;;;;25.70;87.00;;;;;;5073419;28;19952;-69
2022/07/28 06:41:19;;;;;;;;;;;25.70;87.00;;;;;;5073329;28;20351;-68
2022/07/28 06:43:45;;;;;;;;;;;25.70;87.00;;;;;;5073708;28;19958;-69
2022/07/28 06:46:10;;;;;;;;;;;25.70;87.00;;;;;;5073175;28;20034;-68
2022/07/28 06:48:37;;;;;;;;;;;25.70;87.00;;;;;;5073071;28;19982;-68
2022/07/28 06:51:02;;;;;;;;;;;25.70;87.00;;;;;;5073092;28;20343;-68
2022/07/28 06:53:28;;;;;;;;;;;25.70;87.00;;;;;;5073079;28;19917;-68
2022/07/28 06:55:53;;;;;;;;;;;25.70;87.00;;;;;;5072887;28;19912;-68
2022/07/28 06:58:19;;;;;;;;;;;25.70;87.00;;;;;;5073337;28;19908;-68
2022/07/28 07:00:44;;;;;;;;;;;25.70;87.00;;;;;;5073122;28;19920;-68
2022/07/28 07:03:10;;;;;;;;;;;25.70;87.00;;;;;;5073230;28;19916;-68
2022/07/28 07:05:36;;;;;;;;;;;25.70;87.00;;;;;;5073100;28;19909;-69
2022/07/28 07:08:01;;;;;;;;;;;25.70;87.00;;;;;;5072983;28;19940;-69
2022/07/28 07:10:27;;;;;;;;;;;25.70;87.00;;;;;;5055321;28;19912;-67
2022/07/28 07:12:52;;;;;;;;;;;25.70;87.00;;;;;;5055007;28;20003;-68
2022/07/28 07:15:18;;;;;;;;;;;25.70;87.10;;;;;;5072957;28;19908;-69
2022/07/28 07:17:43;;;;;;;;;;;25.70;87.10;;;;;;5054826;28;19912;-69
2022/07/28 07:20:09;;;;;;;;;;;25.70;87.10;;;;;;5076035;28;20369;-69
2022/07/28 07:22:40;;;;;;;;;;;25.70;87.10;;;;;;5076760;28;20431;-68
2022/07/28 07:25:06;;;;;;;;;;;25.60;87.00;;;;;;5076575;28;20011;-68
2022/07/28 07:27:32;;;;;;;;;;;25.60;87.10;;;;;;5076452;28;20244;-69
2022/07/28 07:29:57;;;;;;;;;;;25.60;87.10;;;;;;5076747;28;20422;-68
2022/07/28 07:32:22;;;;;;;;;;;25.60;87.10;;;;;;5076699;28;19954;-68
2022/07/28 07:34:48;;;;;;;;;;;25.60;87.10;;;;;;5076728;28;20283;-68
2022/07/28 07:37:14;;;;;;;;;;;25.70;87.20;;;;;;5076193;28;19909;-68
2022/07/28 07:39:40;;;;;;;;;;;25.70;87.10;;;;;;5076086;28;20041;-68
2022/07/28 07:42:05;;;;;;;;;;;25.60;87.10;;;;;;5076410;28;20347;-68
2022/07/28 07:44:31;;;;;;;;;;;25.60;87.10;;;;;;5076247;28;19913;-68
2022/07/28 07:46:56;;;;;;;;;;;25.60;87.10;;;;;;5076146;28;19909;-67
2022/07/28 07:49:21;;;;;;;;;;;25.60;87.10;;;;;;5076069;28;19943;-68
2022/07/28 07:51:47;;;;;;;;;;;25.60;87.20;;;;;;5075845;28;19908;-68
2022/07/28 07:54:12;;;;;;;;;;;25.60;87.10;;;;;;5075939;28;19916;-68
2022/07/28 07:56:38;;;;;;;;;;;25.60;87.10;;;;;;5076421;28;19961;-67
2022/07/28 07:59:03;;;;;;;;;;;25.60;87.20;;;;;;5075815;28;19998;-68
2022/07/28 08:01:29;;;;;;;;;;;25.60;87.10;;;;;;5057911;28;20272;-67
2022/07/28 08:03:55;;;;;;;;;;;25.70;87.10;;;;;;5057988;28;19916;-67
2022/07/28 08:06:20;;;;;;;;;;;25.60;87.00;;;;;;5075855;28;19908;-68
2022/07/28 08:08:46;;;;;;;;;;;25.60;87.10;;;;;;5076030;28;20382;-67
2022/07/28 08:11:11;;;;;;;;;;;25.60;87.10;;;;;;5075458;28;20271;-67
2022/07/28 08:13:37;;;;;;;;;;;25.70;87.60;;;;;;5058021;28;19909;-67
2022/07/28 08:16:03;;;;;;;;;;;25.70;87.00;;;;;;5076008;28;20355;-67
2022/07/28 08:18:28;;;;;;;;;;;25.70;87.00;;;;;;5075643;28;20308;-67
2022/07/28 08:20:54;;;;;;;;;;;25.70;86.90;;;;;;5075641;28;19936;-67
2022/07/28 08:23:19;;;;;;;;;;;25.70;87.00;;;;;;5075567;28;19908;-67
2022/07/28 08:25:45;;;;;;;;;;;25.70;87.00;;;;;;5057495;28;19948;-68
2022/07/28 08:28:10;;;;;;;;;;;25.70;87.00;;;;;;5075581;28;19952;-68
2022/07/28 08:30:36;;;;;;;;;;;25.70;87.00;;;;;;5074606;28;19914;-68
2022/07/28 08:33:01;;;;;;;;;;;25.70;87.10;;;;;;5057373;28;19912;-68
2022/07/28 08:35:27;;;;;;;;;;;25.60;87.00;;;;;;5057460;28;19908;-68
2022/07/28 08:37:52;;;;;;;;;;;25.70;87.00;;;;;;5057465;28;19909;-68
2022/07/28 08:40:18;;;;;;;;;;;25.70;87.00;;;;;;5075249;28;20015;-68
2022/07/28 08:42:43;;;;;;;;;;;25.70;87.00;;;;;;5074991;28;19909;-68
2022/07/28 08:45:09;;;;;;;;;;;25.70;87.00;;;;;;5075189;28;20019;-68
2022/07/28 08:47:35;;;;;;;;;;;25.60;87.00;;;;;;5075038;28;20355;-68
2022/07/28 08:50:01;;;;;;;;;;;25.70;87.00;;;;;;5075239;28;19909;-68
2022/07/28 08:52:30;;;;;;;;;;;25.70;87.00;;;;;;5074697;28;19909;-67
2022/07/28 08:54:56;;;;;;;;;;;25.70;87.00;;;;;;5075118;28;20351;-67
2022/07/28 08:57:27;;;;;;;;;;;25.70;87.00;;;;;;5056885;28;20371;-68
2022/07/28 08:59:52;;;;;;;;;;;25.70;87.00;;;;;;5075021;28;19920;-67
2022/07/28 09:02:18;;;;;;;;;;;25.70;87.00;;;;;;5075638;28;19908;-67
2022/07/28 09:04:45;;;;;;;;;;;25.70;87.10;;;;;;5074607;28;20285;-67
2022/07/28 09:07:10;;;;;;;;;;;25.70;86.90;;;;;;5074564;28;19947;-67
2022/07/28 09:09:36;;;;;;;;;;;25.70;87.00;;;;;;5057322;28;20405;-67
2022/07/28 09:12:04;;;;;;;;;;;25.70;87.00;;;;;;5057432;28;19919;-66
2022/07/28 09:14:30;;;;;;;;;;;25.70;87.00;;;;;;5074599;28;20050;-67
2022/07/28 09:16:57;;;;;;;;;;;25.70;87.00;;;;;;5074346;28;20318;-65
2022/07/28 09:19:22;;;;;;;;;;;25.70;86.90;;;;;;5074459;28;19908;-67
2022/07/28 09:21:48;;;;;;;;;;;25.70;87.00;;;;;;5074461;28;19909;-67
2022/07/28 09:24:45;;;;;;;;;;;25.70;87.00;;;;;;5074638;28;19915;-67
2022/07/28 09:27:12;;;;;;;;;;;25.70;87.00;;;;;;5066140;28;19916;-67
2022/07/28 09:29:39;;;;;;;;;;;25.70;87.00;;;;;;5074235;28;20371;-68
2022/07/28 09:32:04;;;;;;;;;;;25.80;87.00;;;;;;5073935;28;19915;-67
2022/07/28 09:34:43;;;;;;;;;;;25.80;87.00;;;;;;5056195;28;19909;-68
2022/07/28 09:37:16;;;;;;;;;;;25.80;86.90;;;;;;5074073;28;19994;-68
2022/07/28 09:39:42;;;;;;;;;;;25.80;86.90;;;;;;5074103;28;19960;-69
2022/07/28 09:42:08;;;;;;;;;;;25.80;86.90;;;;;;5073159;28;19908;-68
2022/07/28 09:44:33;;;;;;;;;;;25.80;86.90;;;;;;5073779;28;19908;-68
2022/07/28 09:46:59;;;;;;;;;;;25.80;86.90;;;;;;5055813;28;19908;-68
2022/07/28 09:49:43;;;;;;;;;;;25.80;86.90;;;;;;5074081;28;20316;-69
2022/07/28 09:52:08;;;;;;;;;;;25.80;86.80;;;;;;5055933;28;20391;-69
2022/07/28 09:54:34;;;;;;;;;;;25.80;86.80;;;;;;5056416;28;20000;-68
2022/07/28 09:56:59;;;;;;;;;;;25.80;86.90;;;;;;5074029;28;19909;-67
2022/07/28 09:59:38;;;;;;;;;;;25.80;86.90;;;;;;5073380;28;19920;-68
2022/07/28 10:02:04;;;;;;;;;;;25.80;86.80;;;;;;5074043;28;19934;-67
2022/07/28 10:04:32;;;;;;;;;;;25.80;86.90;;;;;;5055866;28;19916;-66
2022/07/28 10:07:02;;;;;;;;;;;25.80;86.80;;;;;;5073587;28;20336;-66
2022/07/28 10:09:27;;;;;;;;;;;25.80;86.80;;;;;;5073876;28;20323;-68
2022/07/28 10:11:54;;;;;;;;;;;25.80;86.80;;;;;;5074133;28;19940;-68
2022/07/28 10:14:30;;;;;;;;;;;25.80;86.80;;;;;;5073396;28;20274;-69
2022/07/28 10:16:55;;;;;;;;;;;25.80;86.80;;;;;;5073461;28;20405;-68
2022/07/28 10:19:23;;;;;;;;;;;25.80;86.80;;;;;;5073872;28;19913;-70
2022/07/28 10:21:50;;;;;;;;;;;25.80;86.90;;;;;;5074083;28;20011;-70
2022/07/28 10:24:19;;;;;;;;;;;25.80;87.40;;;;;;5073648;28;19915;-69
2022/07/28 10:26:45;;;;;;;;;;;25.80;86.80;;;;;;5073626;28;19909;-68
2022/07/28 10:29:12;;;;;;;;;;;25.80;86.80;;;;;;5073690;28;20358;-68
2022/07/28 10:31:43;;;;;;;;;;;25.80;86.80;;;;;;5073694;28;19916;-68
2022/07/28 10:34:13;;;;;;;;;;;25.80;86.80;;;;;;5073532;28;19998;-68
2022/07/28 10:36:40;;;;;;;;;;;25.80;86.80;;;;;;5073595;28;19915;-68
2022/07/28 10:39:14;;;;;;;;;;;25.80;86.80;;;;;;5073574;28;19950;-68
2022/07/28 10:41:41;;;;;;;;;;;25.80;86.90;;;;;;5073154;28;19917;-68
2022/07/28 10:44:08;;;;;;;;;;;25.80;86.80;;;;;;5073727;28;20359;-68
2022/07/28 10:46:35;;;;;;;;;;;25.80;86.70;;;;;;5073746;28;19977;-68
2022/07/28 10:49:00;;;;;;;;;;;25.80;86.80;;;;;;5073268;28;19919;-67
2022/07/28 10:51:27;;;;;;;;;;;25.80;86.80;;;;;;5073457;28;20287;-67
2022/07/28 10:53:54;;;;;;;;;;;25.80;86.90;;;;;;5074716;28;19915;-68
2022/07/28 10:56:37;;;;;;;;;;;25.80;86.80;;;;;;5077180;28;19908;-69
2022/07/28 10:59:10;;;;;;;;;;;25.80;86.80;;;;;;5059174;28;19944;-68
2022/07/28 11:01:37;;;;;;;;;;;25.80;86.80;;;;;;5076883;28;19912;-69
2022/07/28 11:04:02;;;;;;;;;;;25.80;86.80;;;;;;5076922;28;19912;-68
2022/07/28 11:06:33;;;;;;;;;;;25.80;86.80;;;;;;5059027;28;19908;-68
2022/07/28 11:09:19;;;;;;;;;;;25.80;86.80;;;;;;5076990;28;19909;-66
2022/07/28 11:11:50;;;;;;;;;;;25.80;86.90;;;;;;5058859;28;20343;-68
2022/07/28 11:14:21;;;;;;;;;;;25.80;86.90;;;;;;5076854;28;19908;-67
2022/07/28 11:17:02;;;;;;;;;;;25.80;86.90;;;;;;5076862;28;20346;-67
2022/07/28 11:19:28;;;;;;;;;;;25.80;86.80;;;;;;5076774;28;19915;-68
2022/07/28 11:22:14;;;;;;;;;;;25.80;86.80;;;;;;5076853;28;20006;-69
2022/07/28 11:25:01;;;;;;;;;;;25.80;86.90;;;;;;5058696;28;19912;-69
2022/07/28 11:27:38;;;;;;;;;;;25.80;86.80;;;;;;5076465;28;20021;-69
2022/07/28 11:30:04;;;;;;;;;;;25.80;86.80;;;;;;5076347;28;20355;-68
2022/07/28 11:32:49;;;;;;;;;;;25.80;86.90;;;;;;5058723;28;19916;-69
2022/07/28 11:35:19;;;;;;;;;;;25.80;86.80;;;;;;5076037;28;19991;-68
2022/07/28 11:37:59;;;;;;;;;;;25.80;86.80;;;;;;5076052;28;19912;-69
2022/07/28 11:40:31;;;;;;;;;;;25.80;86.90;;;;;;5076355;28;19912;-69
2022/07/28 11:43:15;;;;;;;;;;;25.80;86.90;;;;;;5058263;28;19912;-68
2022/07/28 11:45:41;;;;;;;;;;;25.80;86.90;;;;;;5076921;28;20399;-69
2022/07/28 11:48:12;;;;;;;;;;;25.80;86.90;;;;;;5076346;28;20013;-69
2022/07/28 11:50:38;;;;;;;;;;;25.80;86.90;;;;;;5076252;28;20271;-69
2022/07/28 11:53:03;;;;;;;;;;;25.80;86.90;;;;;;5058490;28;19908;-69
2022/07/28 11:55:29;;;;;;;;;;;25.80;86.90;;;;;;5075818;28;19916;-68
2022/07/28 11:57:55;;;;;;;;;;;25.80;86.90;;;;;;5076191;28;19909;-69
2022/07/28 12:00:21;;;;;;;;;;;25.80;86.90;;;;;;5076197;28;20416;-69
2022/07/28 12:02:46;;;;;;;;;;;25.80;86.90;;;;;;5076573;28;19909;-69
2022/07/28 12:05:13;;;;;;;;;;;25.80;86.80;;;;;;5057200;28;19923;-69
2022/07/28 12:07:43;;;;;;;;;;;25.80;86.90;;;;;;5076055;28;20003;-68
2022/07/28 12:10:28;;;;;;;;;;;25.80;86.90;;;;;;5058072;28;20012;-69
2022/07/28 12:12:55;;;;;;;;;;;25.80;86.90;;;;;;5075889;28;19913;-69
2022/07/28 12:15:20;;;;;;;;;;;25.80;86.90;;;;;;5057295;28;19908;-69
2022/07/28 12:17:46;;;;;;;;;;;25.80;86.90;;;;;;5057544;28;20295;-69
2022/07/28 12:20:13;;;;;;;;;;;25.80;86.80;;;;;;5057390;28;20355;-69
2022/07/28 12:22:38;;;;;;;;;;;25.80;86.80;;;;;;5057885;28;19941;-69
2022/07/28 12:25:04;;;;;;;;;;;25.80;86.90;;;;;;5057155;28;20055;-69
2022/07/28 12:27:29;;;;;;;;;;;25.80;87.40;;;;;;5075437;28;19912;-68
2022/07/28 12:29:58;;;;;;;;;;;25.80;86.90;;;;;;5057679;28;19915;-70
2022/07/28 12:32:36;;;;;;;;;;;25.80;86.80;;;;;;5075294;28;20362;-69
2022/07/28 12:35:02;;;;;;;;;;;25.80;86.90;;;;;;5075536;28;20133;-69
2022/07/28 12:37:28;;;;;;;;;;;25.80;86.90;;;;;;5057395;28;20003;-70
2022/07/28 12:39:53;;;;;;;;;;;25.80;86.90;;;;;;5057277;28;19916;-70
2022/07/28 12:42:19;;;;;;;;;;;25.80;86.80;;;;;;5074954;28;19931;-70
2022/07/28 12:44:46;;;;;;;;;;;25.80;86.80;;;;;;5074915;28;19945;-69
2022/07/28 12:47:13;;;;;;;;;;;25.80;86.80;;;;;;5075071;28;19920;-70
2022/07/28 12:49:39;;;;;;;;;;;25.80;86.90;;;;;;5075026;28;20059;-70
2022/07/28 12:52:18;;;;;;;;;;;25.80;86.90;;;;;;5075033;28;20385;-69
2022/07/28 12:54:43;;;;;;;;;;;25.80;86.90;;;;;;5075026;28;19931;-70
2022/07/28 12:57:09;;;;;;;;;;;25.80;87.40;;;;;;5074888;28;20355;-70
2022/07/28 12:59:35;;;;;;;;;;;25.80;86.90;;;;;;5074526;28;20290;-69
2022/07/28 13:02:01;;;;;;;;;;;25.80;86.90;;;;;;5074854;28;20401;-68
2022/07/28 13:04:38;;;;;;;;;;;25.80;86.90;;;;;;5056869;28;19908;-70
2022/07/28 13:07:09;;;;;;;;;;;25.80;86.90;;;;;;5074525;28;19919;-69
2022/07/28 13:09:46;;;;;;;;;;;25.80;86.90;;;;;;5074825;28;20006;-69
2022/07/28 13:12:18;;;;;;;;;;;25.80;86.90;;;;;;5074652;28;19918;-69
2022/07/28 13:14:50;;;;;;;;;;;25.80;86.90;;;;;;5056707;28;19908;-69
2022/07/28 13:17:16;;;;;;;;;;;25.80;86.90;;;;;;5056254;28;19908;-69
2022/07/28 13:19:44;;;;;;;;;;;25.80;86.90;;;;;;5074628;28;19916;-69
2022/07/28 13:22:09;;;;;;;;;;;25.80;86.90;;;;;;5073988;28;19912;-69
2022/07/28 13:24:35;;;;;;;;;;;25.80;86.90;;;;;;5074274;28;19956;-69
2022/07/28 13:27:01;;;;;;;;;;;25.80;86.90;;;;;;5073980;28;19916;-68
2022/07/28 13:29:27;;;;;;;;;;;25.80;86.90;;;;;;5074504;28;20370;-69
2022/07/28 13:31:53;;;;;;;;;;;25.80;86.90;;;;;;5056394;28;20386;-69
2022/07/28 13:34:18;;;;;;;;;;;25.80;86.90;;;;;;5073835;28;20355;-69
2022/07/28 13:36:44;;;;;;;;;;;25.80;86.90;;;;;;5073808;28;20095;-68
2022/07/28 13:39:09;;;;;;;;;;;25.80;86.90;;;;;;5074312;28;19909;-68
2022/07/28 13:41:35;;;;;;;;;;;25.80;86.90;;;;;;5074246;28;20355;-68
2022/07/28 13:44:01;;;;;;;;;;;25.80;86.90;;;;;;5073781;28;19916;-68
2022/07/28 13:46:26;;;;;;;;;;;25.80;86.90;;;;;;5073992;28;19915;-69
2022/07/28 13:48:52;;;;;;;;;;;25.80;86.80;;;;;;5073837;28;19920;-69
2022/07/28 13:51:18;;;;;;;;;;;25.80;86.90;;;;;;5074178;28;20004;-69
2022/07/28 13:53:43;;;;;;;;;;;25.80;86.90;;;;;;5055463;28;19909;-69
2022/07/28 13:56:09;;;;;;;;;;;25.80;86.90;;;;;;5073772;28;19908;-69
2022/07/28 13:58:35;;;;;;;;;;;25.80;86.90;;;;;;5073738;28;19908;-69
2022/07/28 14:01:00;;;;;;;;;;;25.80;86.80;;;;;;5055988;28;20386;-68
2022/07/28 14:03:26;;;;;;;;;;;25.80;86.80;;;;;;5074121;28;19908;-69
2022/07/28 14:05:51;;;;;;;;;;;25.80;86.80;;;;;;5073646;28;19913;-69
2022/07/28 14:08:18;;;;;;;;;;;25.80;86.80;;;;;;5073705;28;19999;-69
2022/07/28 14:10:48;;;;;;;;;;;25.80;86.70;;;;;;5073388;28;20386;-69
2022/07/28 14:13:13;;;;;;;;;;;25.80;86.70;;;;;;5073609;28;19951;-69
2022/07/28 14:15:40;;;;;;;;;;;25.80;86.70;;;;;;5055430;28;19950;-68
2022/07/28 14:18:06;;;;;;;;;;;25.80;86.80;;;;;;5073182;28;20312;-68